sim
Sign-in with your pilot id or email,
or register
Callsign
Passwort

Schedule Details

Flight Number: OEO5979
Departure: Munich Airport (EDDM) at 10:00
Arrival: Philadelphia International Airport (KPHL) at 19:45

Weather Information
Getting current METAR information for EDDM 262050Z 24017KT 9999 -RA BKN022 BKN032 07/04 Q1001 NOSIG
Getting current METAR information for KPHL 262054Z 11005KT 10SM -RA SCT020 SCT047 BKN070 24/20 A2999 RMK AO2 RAB41 SLP156 P0000 60002 T02390200 58010

Schedule Frequency

Route Map